Alvin, Wisconsin
Current Conditions -  °F | °C
As of 2:15 PM on Friday 31 Oct 2014 (Local Time) from KEGV Reporting Station
Broken Clouds Broken Clouds  
Wind Chill: 22°   Ceiling: 4200
Heat Index: 31°   Visibility: 10mi
Dew Point: 19°   Wind: 10mph
Humidity: 61%   Direction: 10°N
Pressure: 30.39"   Gusts: 25mph
Location:  45.9186°N, 88.7601°W
Report Text: KEGV 311915Z AUTO 01009G22KT 10SM SCT029 BKN042 M01/M07 A3039 RMK AO2 T10081075
Loading
Personal Weather Stations






























Interactive Weather Map New forecast layout! Learn more

10-Day Weather Forecast

Advertisements
Track Severe Weather on mobile